createdAt,value
2022-11-17T00:00:05.488Z,16.12
2022-11-17T00:00:42.051Z,15.52
2022-11-17T00:01:22.007Z,16.40
2022-11-17T00:01:54.218Z,15.50
2022-11-17T00:02:26.128Z,14.85
2022-11-17T00:02:58.059Z,15.55
2022-11-17T00:03:29.885Z,14.77
2022-11-17T00:04:01.788Z,15.05
2022-11-17T00:04:33.663Z,15.13
2022-11-17T00:05:05.945Z,15.15
2022-11-17T00:05:37.800Z,16.55
2022-11-17T00:06:09.726Z,15.27
2022-11-17T00:06:41.872Z,14.90
2022-11-17T00:07:13.858Z,15.20
2022-11-17T00:07:46.036Z,15.60
2022-11-17T00:08:17.882Z,15.68
2022-11-17T00:08:49.811Z,14.50
2022-11-17T00:09:21.696Z,15.07
2022-11-17T00:09:53.504Z,15.50
2022-11-17T00:10:25.397Z,15.07
2022-11-17T00:11:03.818Z,15.15
2022-11-17T00:11:55.624Z,14.87
2022-11-17T00:12:46.456Z,14.52
2022-11-17T00:13:37.202Z,15.00
2022-11-17T00:14:28.283Z,14.32
2022-11-17T00:15:00.369Z,14.80
2022-11-17T00:15:32.303Z,13.93
2022-11-17T00:16:04.239Z,13.52
2022-11-17T00:16:36.055Z,15.25
2022-11-17T00:17:12.457Z,14.95
2022-11-17T00:17:47.933Z,13.85
2022-11-17T00:18:38.491Z,16.05
2022-11-17T00:19:28.717Z,14.20
2022-11-17T00:20:19.054Z,13.43
2022-11-17T00:21:09.447Z,13.38
2022-11-17T00:21:41.380Z,13.90
2022-11-17T00:22:13.228Z,13.90
2022-11-17T00:22:45.448Z,13.62
2022-11-17T00:23:17.321Z,13.65
2022-11-17T00:23:50.615Z,13.88
2022-11-17T00:24:24.099Z,13.05
2022-11-17T00:24:55.922Z,13.45
2022-11-17T00:25:27.794Z,12.95
2022-11-17T00:25:59.653Z,14.15
2022-11-17T00:26:34.061Z,14.25
2022-11-17T00:27:07.858Z,13.82
2022-11-17T00:27:39.749Z,14.38
2022-11-17T00:28:12.279Z,14.32
2022-11-17T00:28:44.435Z,12.73
2022-11-17T00:29:16.288Z,14.23
2022-11-17T00:29:48.203Z,13.88
2022-11-17T00:30:40.511Z,14.32
2022-11-17T00:31:34.663Z,13.48
2022-11-17T00:32:30.182Z,13.68
2022-11-17T00:33:22.702Z,13.70
2022-11-17T00:34:07.246Z,12.75
2022-11-17T00:34:39.132Z,13.45
2022-11-17T00:35:10.989Z,13.27
2022-11-17T00:35:42.900Z,14.05
2022-11-17T00:36:15.740Z,13.75
2022-11-17T00:36:49.827Z,13.27
2022-11-17T00:37:21.877Z,13.00
2022-11-17T00:38:12.416Z,13.48
2022-11-17T00:38:44.287Z,13.55
2022-11-17T00:39:18.500Z,12.93
2022-11-17T00:39:50.436Z,13.48
2022-11-17T00:40:22.296Z,13.05
2022-11-17T00:40:54.215Z,14.40
2022-11-17T00:41:26.047Z,12.95
2022-11-17T00:41:58.416Z,12.65
2022-11-17T00:42:30.306Z,13.32
2022-11-17T00:43:02.128Z,14.65
2022-11-17T00:43:34.308Z,13.13
2022-11-17T00:44:07.100Z,13.52
2022-11-17T00:44:39.255Z,13.75
2022-11-17T00:45:11.113Z,13.82
2022-11-17T00:45:42.979Z,13.57
2022-11-17T00:46:14.832Z,14.02
2022-11-17T00:46:47.263Z,14.40
2022-11-17T00:47:19.110Z,13.55
2022-11-17T00:47:50.978Z,13.35
2022-11-17T00:48:22.829Z,13.25
2022-11-17T00:48:54.916Z,13.35
2022-11-17T00:49:26.984Z,13.13
2022-11-17T00:49:59.099Z,14.15
2022-11-17T00:50:30.900Z,13.40
2022-11-17T00:51:05.985Z,14.05
2022-11-17T00:51:38.617Z,13.85
2022-11-17T00:52:10.744Z,14.27
2022-11-17T00:52:42.704Z,13.80
2022-11-17T00:53:14.529Z,13.85
2022-11-17T00:53:46.702Z,14.20
2022-11-17T00:54:18.693Z,14.50
2022-11-17T00:54:50.539Z,13.43
2022-11-17T00:55:23.194Z,13.23
2022-11-17T00:55:55.192Z,13.62
2022-11-17T00:56:27.407Z,13.93
2022-11-17T00:56:59.282Z,14.80
2022-11-17T00:57:31.140Z,13.90
2022-11-17T00:58:03.009Z,12.80
2022-11-17T00:58:36.499Z,13.95
2022-11-17T00:59:08.396Z,13.50
2022-11-17T00:59:40.294Z,13.57
2022-11-17T01:00:12.644Z,14.30
2022-11-17T01:00:44.870Z,14.07
2022-11-17T01:01:16.852Z,13.68
2022-11-17T01:01:48.824Z,14.35
2022-11-17T01:02:20.704Z,14.05
2022-11-17T01:02:52.621Z,14.07
2022-11-17T01:03:24.464Z,14.23
2022-11-17T01:04:14.540Z,14.40
2022-11-17T01:04:46.414Z,13.43
2022-11-17T01:05:18.280Z,13.90
2022-11-17T01:05:50.411Z,13.02
2022-11-17T01:06:22.314Z,14.40
2022-11-17T01:06:54.373Z,13.50
2022-11-17T01:07:26.352Z,13.65
2022-11-17T01:07:59.264Z,14.07
2022-11-17T01:08:31.313Z,13.48
2022-11-17T01:09:08.344Z,13.62
2022-11-17T01:09:40.190Z,13.25
2022-11-17T01:10:12.188Z,15.13
2022-11-17T01:10:44.094Z,13.62
2022-11-17T01:11:18.362Z,14.85
2022-11-17T01:11:52.455Z,13.82
2022-11-17T01:12:24.412Z,12.88
2022-11-17T01:12:56.231Z,14.27
2022-11-17T01:13:28.079Z,14.05
2022-11-17T01:14:00.996Z,13.27
2022-11-17T01:14:32.974Z,13.85
2022-11-17T01:15:05.232Z,14.90
2022-11-17T01:15:37.131Z,13.48
2022-11-17T01:16:13.130Z,14.02
2022-11-17T01:16:45.755Z,14.27
2022-11-17T01:17:17.591Z,13.10
2022-11-17T01:17:49.448Z,12.55
2022-11-17T01:18:21.311Z,13.40
2022-11-17T01:18:53.490Z,14.15
2022-11-17T01:19:25.612Z,13.85
2022-11-17T01:19:57.441Z,13.75
2022-11-17T01:20:29.295Z,13.80
2022-11-17T01:21:06.740Z,13.45
2022-11-17T01:21:38.800Z,13.35
2022-11-17T01:22:10.957Z,13.55
2022-11-17T01:22:42.826Z,13.62
2022-11-17T01:23:14.665Z,13.55
2022-11-17T01:23:47.599Z,13.70
2022-11-17T01:24:20.073Z,13.30
2022-11-17T01:24:51.935Z,12.73
2022-11-17T01:25:23.747Z,14.13
2022-11-17T01:26:08.371Z,13.02
2022-11-17T01:26:41.140Z,13.00
2022-11-17T01:27:13.305Z,13.50
2022-11-17T01:27:45.267Z,13.48
2022-11-17T01:28:17.134Z,14.45
2022-11-17T01:28:49.595Z,14.20
2022-11-17T01:29:21.542Z,12.98
2022-11-17T01:29:53.448Z,13.55
2022-11-17T01:30:25.333Z,13.88
2022-11-17T01:31:12.154Z,13.55
2022-11-17T01:31:45.511Z,13.52
2022-11-17T01:32:17.714Z,13.48
2022-11-17T01:32:49.585Z,12.88
2022-11-17T01:33:21.406Z,13.45
2022-11-17T01:33:53.550Z,12.65
2022-11-17T01:34:25.421Z,13.05
2022-11-17T01:34:57.304Z,14.00
2022-11-17T01:35:29.166Z,13.43
2022-11-17T01:36:06.712Z,13.27
2022-11-17T01:36:59.815Z,13.00
2022-11-17T01:37:31.948Z,12.90
2022-11-17T01:38:03.791Z,12.88
2022-11-17T01:38:35.700Z,14.20
2022-11-17T01:39:07.553Z,13.32
2022-11-17T01:39:39.480Z,14.05
2022-11-17T01:40:14.118Z,12.98
2022-11-17T01:40:46.014Z,12.27
2022-11-17T01:41:22.967Z,13.15
2022-11-17T01:41:55.430Z,12.98
2022-11-17T01:42:27.731Z,12.20
2022-11-17T01:42:59.893Z,12.23
2022-11-17T01:43:52.415Z,12.98
2022-11-17T01:44:36.503Z,12.32
2022-11-17T01:45:20.899Z,12.37
2022-11-17T01:45:53.202Z,11.93
2022-11-17T01:46:31.527Z,11.98
2022-11-17T01:47:05.122Z,12.45
2022-11-17T01:47:39.917Z,13.02
2022-11-17T01:48:13.783Z,12.37
2022-11-17T01:48:47.424Z,13.02
2022-11-17T01:49:28.197Z,13.25
2022-11-17T01:50:39.025Z,13.05
2022-11-17T01:51:13.332Z,12.32
2022-11-17T01:51:48.810Z,12.23
2022-11-17T01:52:21.141Z,13.30
2022-11-17T01:52:56.971Z,12.85
2022-11-17T01:53:31.373Z,13.30
2022-11-17T01:54:03.658Z,13.85
2022-11-17T01:54:38.396Z,12.73
2022-11-17T01:55:11.457Z,12.95
2022-11-17T01:55:56.700Z,12.48
2022-11-17T01:56:38.925Z,12.75
2022-11-17T01:57:14.619Z,12.65
2022-11-17T01:58:00.657Z,12.35
2022-11-17T01:58:41.633Z,13.05
2022-11-17T01:59:18.876Z,12.73
2022-11-17T02:00:00.499Z,12.45
2022-11-17T02:00:32.362Z,12.50
2022-11-17T02:01:04.561Z,12.73
2022-11-17T02:01:55.633Z,13.02
2022-11-17T02:02:28.805Z,11.88
2022-11-17T02:03:01.441Z,13.95
2022-11-17T02:03:35.606Z,14.35
2022-11-17T02:04:07.992Z,13.52
2022-11-17T02:04:42.359Z,12.95
2022-11-17T02:05:40.323Z,13.62
2022-11-17T02:06:19.110Z,12.50
2022-11-17T02:06:56.114Z,13.27
2022-11-17T02:07:35.897Z,13.52
2022-11-17T02:08:09.318Z,12.73
2022-11-17T02:08:46.224Z,13.80
2022-11-17T02:09:19.023Z,13.25
2022-11-17T02:09:52.839Z,14.10
2022-11-17T02:10:25.323Z,12.25
2022-11-17T02:10:58.480Z,13.32
2022-11-17T02:11:36.173Z,14.45
2022-11-17T02:12:10.377Z,13.38
2022-11-17T02:12:42.858Z,14.43
2022-11-17T02:13:15.331Z,14.05
2022-11-17T02:13:48.204Z,13.40
2022-11-17T02:14:20.398Z,14.00
2022-11-17T02:14:54.293Z,14.02
2022-11-17T02:15:28.153Z,14.13
2022-11-17T02:16:00.038Z,15.02
2022-11-17T02:16:31.931Z,14.80
2022-11-17T02:17:11.432Z,14.07
2022-11-17T02:17:45.173Z,13.88
2022-11-17T02:18:18.987Z,13.80
2022-11-17T02:18:50.979Z,14.77
2022-11-17T02:19:25.977Z,14.13
2022-11-17T02:20:23.837Z,12.90
2022-11-17T02:21:23.745Z,13.70
2022-11-17T02:22:29.505Z,13.25
2022-11-17T02:23:10.253Z,14.13
2022-11-17T02:24:41.076Z,14.07
2022-11-17T02:25:31.420Z,14.18
2022-11-17T02:26:40.737Z,13.07
2022-11-17T02:27:46.512Z,13.73
2022-11-17T02:28:28.721Z,13.20
2022-11-17T02:29:21.476Z,14.90
2022-11-17T02:30:05.708Z,13.95
2022-11-17T02:30:46.933Z,13.38
2022-11-17T02:31:26.002Z,14.15
2022-11-17T02:32:09.600Z,13.93
2022-11-17T02:33:01.815Z,14.48
2022-11-17T02:33:44.103Z,14.48
2022-11-17T02:34:43.604Z,14.73
2022-11-17T02:35:27.500Z,13.50
2022-11-17T02:36:08.614Z,14.23
2022-11-17T02:37:07.963Z,14.90
2022-11-17T02:38:11.245Z,13.82
2022-11-17T02:38:52.153Z,14.27
2022-11-17T02:39:42.775Z,14.63
2022-11-17T02:40:31.194Z,14.93
2022-11-17T02:41:09.644Z,14.00
2022-11-17T02:41:52.358Z,14.90
2022-11-17T02:42:52.262Z,14.52
2022-11-17T02:43:50.858Z,15.48
2022-11-17T02:44:31.697Z,15.23
2022-11-17T02:45:05.694Z,15.38
2022-11-17T02:45:52.053Z,15.52
2022-11-17T02:46:25.708Z,14.90
2022-11-17T02:47:10.876Z,15.13
2022-11-17T02:47:46.732Z,15.25
2022-11-17T02:48:32.545Z,15.32
2022-11-17T02:49:12.640Z,15.80
2022-11-17T02:49:59.269Z,14.50
2022-11-17T02:50:33.958Z,15.30
2022-11-17T02:51:10.857Z,15.38
2022-11-17T02:51:44.079Z,15.07
2022-11-17T02:52:18.033Z,15.38
2022-11-17T02:52:50.080Z,15.10
2022-11-17T02:53:25.443Z,16.27
2022-11-17T02:54:00.082Z,15.57
2022-11-17T02:54:32.856Z,15.82
2022-11-17T02:55:07.596Z,15.77
2022-11-17T02:55:40.402Z,16.15
2022-11-17T02:56:12.235Z,17.05
2022-11-17T02:56:44.653Z,15.40
2022-11-17T02:57:32.850Z,16.80
2022-11-17T02:58:09.872Z,16.15
2022-11-17T02:58:41.737Z,16.00
2022-11-17T02:59:17.507Z,17.20
2022-11-17T02:59:50.102Z,15.65
2022-11-17T03:00:22.082Z,16.08
2022-11-17T03:01:02.130Z,16.35
2022-11-17T03:01:50.573Z,15.95
2022-11-17T03:02:53.500Z,14.80
2022-11-17T03:03:37.383Z,14.75
2022-11-17T03:04:27.579Z,14.57
2022-11-17T03:05:18.976Z,14.68
2022-11-17T03:05:56.939Z,15.52
2022-11-17T03:06:56.231Z,15.10
2022-11-17T03:07:28.374Z,15.13
2022-11-17T03:08:09.061Z,14.20
2022-11-17T03:08:47.027Z,14.82
2022-11-17T03:09:30.328Z,15.38
2022-11-17T03:10:17.136Z,17.08
2022-11-17T03:11:03.738Z,14.55
2022-11-17T03:12:16.004Z,14.95
2022-11-17T03:13:12.868Z,15.88
2022-11-17T03:14:01.301Z,15.63
2022-11-17T03:14:53.370Z,14.40
2022-11-17T03:15:54.796Z,14.77
2022-11-17T03:16:45.557Z,14.20
2022-11-17T03:17:26.719Z,14.50
2022-11-17T03:18:17.418Z,15.02
2022-11-17T03:19:01.564Z,15.50
2022-11-17T03:19:38.129Z,14.95
2022-11-17T03:20:19.659Z,14.40
2022-11-17T03:21:12.864Z,14.65
2022-11-17T03:22:03.460Z,17.20
2022-11-17T03:22:50.198Z,13.62
2022-11-17T03:23:45.307Z,14.35
2022-11-17T03:24:23.429Z,14.45
2022-11-17T03:25:01.551Z,14.00
2022-11-17T03:25:37.888Z,14.85
2022-11-17T03:26:13.891Z,15.02
2022-11-17T03:27:00.895Z,15.20
2022-11-17T03:27:44.844Z,14.25
2022-11-17T03:28:19.452Z,14.50
2022-11-17T03:28:54.360Z,13.62
2022-11-17T03:29:30.172Z,14.75
2022-11-17T03:30:08.528Z,15.18
2022-11-17T03:30:42.901Z,14.55
2022-11-17T03:31:17.031Z,15.23
2022-11-17T03:31:53.505Z,14.60
2022-11-17T03:32:31.382Z,13.77
2022-11-17T03:33:10.355Z,14.23
2022-11-17T03:33:45.884Z,14.57
2022-11-17T03:34:23.340Z,15.00
2022-11-17T03:35:00.702Z,13.98
2022-11-17T03:35:38.654Z,14.40
2022-11-17T03:36:17.669Z,13.93
2022-11-17T03:36:53.358Z,14.40
2022-11-17T03:37:28.271Z,14.02
2022-11-17T03:38:15.886Z,15.45
2022-11-17T03:39:00.111Z,13.80
2022-11-17T03:39:34.835Z,14.38
2022-11-17T03:40:11.123Z,13.73
2022-11-17T03:40:47.362Z,14.57
2022-11-17T03:41:21.381Z,14.95
2022-11-17T03:42:00.345Z,14.02
2022-11-17T03:42:35.043Z,15.02
2022-11-17T03:43:09.577Z,15.40
2022-11-17T03:43:43.840Z,14.38
2022-11-17T03:44:19.255Z,15.55
2022-11-17T03:44:57.127Z,14.45
2022-11-17T03:45:35.947Z,14.13
2022-11-17T03:46:13.639Z,13.73
2022-11-17T03:46:48.662Z,15.07
2022-11-17T03:47:23.765Z,13.95
2022-11-17T03:48:14.543Z,15.25
2022-11-17T03:49:03.032Z,13.95
2022-11-17T03:49:53.866Z,13.38
2022-11-17T03:51:20.971Z,13.95
2022-11-17T03:51:53.069Z,12.98
2022-11-17T03:52:25.993Z,14.35
2022-11-17T03:52:57.882Z,13.88
2022-11-17T03:53:30.680Z,13.70
2022-11-17T03:54:02.670Z,14.20
2022-11-17T03:54:36.443Z,14.90
2022-11-17T03:55:09.325Z,14.43
2022-11-17T03:55:54.354Z,15.05
2022-11-17T03:56:38.246Z,14.35
2022-11-17T03:57:22.307Z,14.23
2022-11-17T03:58:04.314Z,13.43
2022-11-17T03:58:43.832Z,14.05
2022-11-17T03:59:21.754Z,13.93
2022-11-17T04:00:04.401Z,12.65
2022-11-17T04:00:46.573Z,14.07
2022-11-17T04:01:20.920Z,12.93
2022-11-17T04:01:53.250Z,13.77
2022-11-17T04:02:26.918Z,12.52
2022-11-17T04:02:59.304Z,14.18
2022-11-17T04:03:35.187Z,13.82
2022-11-17T04:04:07.415Z,13.43
2022-11-17T04:04:57.946Z,12.73
2022-11-17T04:05:29.790Z,12.50
2022-11-17T04:06:01.948Z,13.40
2022-11-17T04:06:34.076Z,14.65
2022-11-17T04:07:05.941Z,14.23
2022-11-17T04:07:40.302Z,13.57
2022-11-17T04:08:12.175Z,14.48
2022-11-17T04:08:44.124Z,12.98
2022-11-17T04:09:19.909Z,13.38
2022-11-17T04:09:54.855Z,14.07
2022-11-17T04:10:26.839Z,12.88
2022-11-17T04:11:17.324Z,12.70
2022-11-17T04:12:08.369Z,12.85
2022-11-17T04:12:59.240Z,12.93
2022-11-17T04:13:49.683Z,11.50
2022-11-17T04:14:40.118Z,12.23
2022-11-17T04:15:31.356Z,11.65
2022-11-17T04:16:35.103Z,10.38
2022-11-17T04:17:07.307Z,11.02
2022-11-17T04:17:39.121Z,11.57
2022-11-17T04:18:11.091Z,11.65
2022-11-17T04:18:42.960Z,12.50
2022-11-17T04:19:14.778Z,12.35
2022-11-17T04:19:46.708Z,12.55
2022-11-17T04:20:18.577Z,13.40
2022-11-17T04:20:55.755Z,13.10
2022-11-17T04:21:27.585Z,12.10
2022-11-17T04:21:59.499Z,12.80
2022-11-17T04:22:31.606Z,12.43
2022-11-17T04:23:11.350Z,13.02
2022-11-17T04:23:43.460Z,13.40
2022-11-17T04:24:15.323Z,13.13
2022-11-17T04:24:47.178Z,13.43
2022-11-17T04:25:39.015Z,12.27
2022-11-17T04:26:30.435Z,14.05
2022-11-17T04:27:20.885Z,13.15
2022-11-17T04:28:12.099Z,13.27
2022-11-17T04:28:47.848Z,13.10
2022-11-17T04:29:19.739Z,13.70
2022-11-17T04:29:51.690Z,14.25
2022-11-17T04:30:23.558Z,13.93
2022-11-17T04:30:55.378Z,14.30
2022-11-17T04:31:29.400Z,14.25
2022-11-17T04:32:01.308Z,15.50
2022-11-17T04:32:33.196Z,15.63
2022-11-17T04:33:05.320Z,15.25
2022-11-17T04:33:38.986Z,15.90
2022-11-17T04:34:10.871Z,15.73
2022-11-17T04:34:42.750Z,16.15
2022-11-17T04:35:14.670Z,17.12
2022-11-17T04:35:50.456Z,15.25
2022-11-17T04:36:25.600Z,16.00
2022-11-17T04:36:57.550Z,15.85
2022-11-17T04:37:29.435Z,16.17
2022-11-17T04:38:01.327Z,16.12
2022-11-17T04:38:34.002Z,15.38
2022-11-17T04:39:05.867Z,15.15
2022-11-17T04:39:38.929Z,16.85
2022-11-17T04:40:11.173Z,16.05
2022-11-17T04:41:02.979Z,15.93
2022-11-17T04:41:54.091Z,16.20
2022-11-17T04:42:57.696Z,15.52
2022-11-17T04:43:29.573Z,15.23
2022-11-17T04:44:02.721Z,14.43
2022-11-17T04:44:34.548Z,15.50
2022-11-17T04:45:06.811Z,15.60
2022-11-17T04:45:38.694Z,16.02
2022-11-17T04:46:10.611Z,16.52
2022-11-17T04:46:46.462Z,15.00
2022-11-17T04:47:18.349Z,16.62
2022-11-17T04:47:50.198Z,15.65
2022-11-17T04:48:22.026Z,15.82
2022-11-17T04:48:54.530Z,16.33
2022-11-17T04:49:26.834Z,15.70
2022-11-17T04:49:58.689Z,16.25
2022-11-17T04:50:30.591Z,16.08
2022-11-17T04:51:02.893Z,16.08
2022-11-17T04:51:35.491Z,16.55
2022-11-17T04:52:07.406Z,15.73
2022-11-17T04:52:39.255Z,16.00
2022-11-17T04:53:11.091Z,16.70
2022-11-17T04:53:44.485Z,14.73
2022-11-17T04:54:19.160Z,16.02
2022-11-17T04:54:51.312Z,15.63
2022-11-17T04:55:23.159Z,16.20
2022-11-17T04:55:59.162Z,15.98
2022-11-17T04:56:31.167Z,16.55
2022-11-17T04:57:05.647Z,15.55
2022-11-17T04:57:37.508Z,14.63
2022-11-17T04:58:10.999Z,16.30
2022-11-17T04:58:43.124Z,17.30
2022-11-17T04:59:15.108Z,15.43
2022-11-17T04:59:47.049Z,15.73
2022-11-17T05:00:19.742Z,16.23
2022-11-17T05:00:51.738Z,16.08
2022-11-17T05:01:24.633Z,15.80
2022-11-17T05:01:59.831Z,15.95
2022-11-17T05:02:34.485Z,14.90
2022-11-17T05:03:06.514Z,16.42
2022-11-17T05:03:50.634Z,15.48
2022-11-17T05:04:41.009Z,15.48
2022-11-17T05:05:12.891Z,13.15
2022-11-17T05:05:46.488Z,14.30
2022-11-17T05:06:24.592Z,14.73
2022-11-17T05:06:56.480Z,14.23
2022-11-17T05:07:28.413Z,14.60
2022-11-17T05:08:00.470Z,16.17
2022-11-17T05:08:32.375Z,13.77
2022-11-17T05:09:15.856Z,14.95
2022-11-17T05:09:47.727Z,15.32
2022-11-17T05:10:39.622Z,14.57
2022-11-17T05:11:32.460Z,14.50
2022-11-17T05:12:22.779Z,14.45
2022-11-17T05:13:13.328Z,14.25
2022-11-17T05:13:45.251Z,14.20
2022-11-17T05:14:19.613Z,14.73
2022-11-17T05:14:52.396Z,13.43
2022-11-17T05:15:44.256Z,14.90
2022-11-17T05:16:35.349Z,14.57
2022-11-17T05:17:10.996Z,13.93
2022-11-17T05:17:43.322Z,13.60
2022-11-17T05:18:15.227Z,14.20
2022-11-17T05:18:47.121Z,13.93
2022-11-17T05:19:22.017Z,14.70
2022-11-17T05:19:53.957Z,14.18
2022-11-17T05:20:25.926Z,13.62
2022-11-17T05:21:05.609Z,14.77
2022-11-17T05:21:37.760Z,13.82
2022-11-17T05:22:29.556Z,14.80
2022-11-17T05:23:20.184Z,14.38
2022-11-17T05:23:54.872Z,15.27
2022-11-17T05:24:27.227Z,14.23
2022-11-17T05:24:59.423Z,14.07
2022-11-17T05:25:31.272Z,14.85
2022-11-17T05:26:03.207Z,15.63
2022-11-17T05:26:37.503Z,15.32
2022-11-17T05:27:09.664Z,15.40
2022-11-17T05:27:41.502Z,17.00
2022-11-17T05:28:13.422Z,14.82
2022-11-17T05:28:45.684Z,16.23
2022-11-17T05:29:20.565Z,15.63
2022-11-17T05:29:52.693Z,15.85
2022-11-17T05:30:24.598Z,15.95
2022-11-17T05:30:56.451Z,15.50
2022-11-17T05:31:29.415Z,15.98
2022-11-17T05:32:01.325Z,15.30
2022-11-17T05:32:33.685Z,15.40
2022-11-17T05:33:05.540Z,16.10
2022-11-17T05:33:38.183Z,14.85
2022-11-17T05:34:12.594Z,14.85
2022-11-17T05:34:44.989Z,14.38
2022-11-17T05:35:16.896Z,14.98
2022-11-17T05:35:48.713Z,14.60
2022-11-17T05:36:21.575Z,15.38
2022-11-17T05:36:54.414Z,15.35
2022-11-17T05:37:26.351Z,15.75
2022-11-17T05:37:58.519Z,15.60
2022-11-17T05:38:30.363Z,15.43
2022-11-17T05:39:03.140Z,16.15
2022-11-17T05:39:35.000Z,14.75
2022-11-17T05:40:07.645Z,15.90
2022-11-17T05:40:39.492Z,16.60
2022-11-17T05:41:11.361Z,15.85
2022-11-17T05:41:43.418Z,15.60
2022-11-17T05:42:15.293Z,15.88
2022-11-17T05:42:47.142Z,16.20
2022-11-17T05:43:19.420Z,15.00
2022-11-17T05:43:52.164Z,16.35
2022-11-17T05:44:24.064Z,15.05
2022-11-17T05:44:55.923Z,15.77
2022-11-17T05:45:27.820Z,16.70
2022-11-17T05:45:59.663Z,15.77
2022-11-17T05:46:31.765Z,16.65
2022-11-17T05:47:03.604Z,16.70
2022-11-17T05:47:35.423Z,15.60
2022-11-17T05:48:07.311Z,15.80
2022-11-17T05:48:40.411Z,15.07
2022-11-17T05:49:12.266Z,15.85
2022-11-17T05:49:44.146Z,15.73
2022-11-17T05:50:16.066Z,16.08
2022-11-17T05:50:47.958Z,17.30
2022-11-17T05:51:21.904Z,18.10
2022-11-17T05:51:53.770Z,17.55
2022-11-17T05:52:25.604Z,17.33
2022-11-17T05:52:57.462Z,18.05
2022-11-17T05:53:29.859Z,17.98
2022-11-17T05:54:02.063Z,19.55
2022-11-17T05:54:33.960Z,17.25
2022-11-17T05:55:06.403Z,18.45
2022-11-17T05:55:38.287Z,17.90
2022-11-17T05:56:33.700Z,17.92
2022-11-17T05:57:10.730Z,18.35
2022-11-17T05:57:43.629Z,17.62
2022-11-17T05:58:27.041Z,17.30
2022-11-17T05:59:14.532Z,17.30
2022-11-17T05:59:57.357Z,17.30
2022-11-17T06:00:30.597Z,17.12
2022-11-17T06:01:03.801Z,17.75
2022-11-17T06:01:38.159Z,17.75
2022-11-17T06:02:15.331Z,17.37
2022-11-17T06:02:51.993Z,18.42
2022-11-17T06:03:33.551Z,17.92
2022-11-17T06:04:07.947Z,18.15
2022-11-17T06:04:40.022Z,18.15
2022-11-17T06:05:17.042Z,18.27
2022-11-17T06:05:53.251Z,17.87
2022-11-17T06:06:25.776Z,17.12
2022-11-17T06:06:59.446Z,18.87
2022-11-17T06:07:31.502Z,18.70
2022-11-17T06:08:03.532Z,18.77
2022-11-17T06:08:36.586Z,17.23
2022-11-17T06:09:08.524Z,17.50
2022-11-17T06:09:42.165Z,17.85
2022-11-17T06:10:14.071Z,18.12
2022-11-17T06:10:46.033Z,18.25
2022-11-17T06:11:19.059Z,19.90
2022-11-17T06:11:51.191Z,18.42
2022-11-17T06:12:23.124Z,17.95
2022-11-17T06:12:55.004Z,16.37
2022-11-17T06:13:29.133Z,17.20
2022-11-17T06:14:01.064Z,16.25
2022-11-17T06:14:34.169Z,17.05
2022-11-17T06:15:06.531Z,17.25
2022-11-17T06:15:38.699Z,16.75
2022-11-17T06:16:14.236Z,15.90
2022-11-17T06:16:48.497Z,16.60
2022-11-17T06:17:23.189Z,17.00
2022-11-17T06:18:00.463Z,15.70
2022-11-17T06:18:37.546Z,15.05
2022-11-17T06:19:18.948Z,14.60
2022-11-17T06:19:58.254Z,16.15
2022-11-17T06:20:33.584Z,14.77
2022-11-17T06:21:07.473Z,15.70
2022-11-17T06:22:10.137Z,15.73
2022-11-17T06:22:32.588Z,15.50
2022-11-17T06:23:07.135Z,16.52
2022-11-17T06:23:39.243Z,16.50
2022-11-17T06:24:11.257Z,15.85
2022-11-17T06:24:45.442Z,16.98
2022-11-17T06:25:19.697Z,16.83
2022-11-17T06:25:51.590Z,36.20
2022-11-17T06:26:23.607Z,79.22
2022-11-17T06:26:55.808Z,134.63
2022-11-17T06:27:29.217Z,118.03
2022-11-17T06:28:04.312Z,65.47
2022-11-17T06:28:39.161Z,47.35
2022-11-17T06:29:12.349Z,33.63
2022-11-17T06:29:45.266Z,30.12
2022-11-17T06:30:17.743Z,23.73
2022-11-17T06:30:50.203Z,21.83
2022-11-17T06:31:22.286Z,18.58
2022-11-17T06:31:56.613Z,19.87
2022-11-17T06:32:28.655Z,18.15
2022-11-17T06:33:01.118Z,18.73
2022-11-17T06:33:36.235Z,18.40
2022-11-17T06:34:09.421Z,17.87
2022-11-17T06:34:43.169Z,17.70
2022-11-17T06:35:16.575Z,18.40
2022-11-17T06:35:49.563Z,16.87
2022-11-17T06:36:21.419Z,15.48
2022-11-17T06:36:53.685Z,16.33
2022-11-17T06:37:25.602Z,16.55
2022-11-17T06:37:57.418Z,14.00
2022-11-17T06:38:29.826Z,20.17
2022-11-17T06:39:02.092Z,18.20
2022-11-17T06:39:33.973Z,16.70
2022-11-17T06:40:06.515Z,16.37
2022-11-17T06:40:38.459Z,16.48
2022-11-17T06:41:12.001Z,18.58
2022-11-17T06:41:44.227Z,18.42
2022-11-17T06:42:16.175Z,17.95
2022-11-17T06:43:04.071Z,18.67
2022-11-17T06:43:36.360Z,22.37
2022-11-17T06:44:08.892Z,21.27
2022-11-17T06:44:40.821Z,21.50
2022-11-17T06:45:12.954Z,21.50
2022-11-17T06:45:46.661Z,21.08
2022-11-17T06:46:19.262Z,21.02
2022-11-17T06:46:51.201Z,20.73
2022-11-17T06:47:23.307Z,20.60
2022-11-17T06:47:55.691Z,19.52
2022-11-17T06:48:27.662Z,19.17
2022-11-17T06:48:59.934Z,19.58
2022-11-17T06:49:32.336Z,20.45
2022-11-17T06:50:04.816Z,22.20
2022-11-17T06:50:37.066Z,22.80
2022-11-17T06:51:08.951Z,19.95
2022-11-17T06:51:44.914Z,20.02
2022-11-17T06:52:17.376Z,20.10
2022-11-17T06:52:49.280Z,20.73
2022-11-17T06:53:26.679Z,22.00
2022-11-17T06:53:58.624Z,20.35
2022-11-17T06:54:30.540Z,21.08
2022-11-17T06:55:02.812Z,21.67
2022-11-17T06:55:36.657Z,20.90
2022-11-17T06:56:08.650Z,21.20
2022-11-17T06:56:40.807Z,19.35
2022-11-17T06:57:12.738Z,19.20
2022-11-17T06:57:48.938Z,20.77
2022-11-17T06:58:23.916Z,22.05
2022-11-17T06:58:56.556Z,21.98
2022-11-17T06:59:28.537Z,21.65
2022-11-17T07:00:00.456Z,19.58
2022-11-17T07:00:33.917Z,20.27
2022-11-17T07:01:11.710Z,21.08
2022-11-17T07:01:43.863Z,21.80
2022-11-17T07:02:15.746Z,20.45
2022-11-17T07:02:47.673Z,20.02
2022-11-17T07:03:19.586Z,19.60
2022-11-17T07:03:52.208Z,20.88
2022-11-17T07:04:24.097Z,21.35
2022-11-17T07:04:55.996Z,20.70
2022-11-17T07:05:28.230Z,22.48
2022-11-17T07:06:01.023Z,21.12
2022-11-17T07:06:36.981Z,21.83
2022-11-17T07:07:08.979Z,20.27
2022-11-17T07:07:40.981Z,21.12
2022-11-17T07:08:12.914Z,21.15
2022-11-17T07:08:45.800Z,22.02
2022-11-17T07:09:17.816Z,22.30
2022-11-17T07:09:49.700Z,21.80
2022-11-17T07:10:21.595Z,20.42
2022-11-17T07:10:54.851Z,18.75
2022-11-17T07:11:27.010Z,19.33
2022-11-17T07:11:58.953Z,18.55
2022-11-17T07:12:30.906Z,18.20
2022-11-17T07:13:03.322Z,18.23
2022-11-17T07:13:35.385Z,17.62
2022-11-17T07:14:07.365Z,16.25
2022-11-17T07:14:39.270Z,15.75
2022-11-17T07:15:11.461Z,15.95
2022-11-17T07:15:43.361Z,16.75
2022-11-17T07:16:23.221Z,16.45
2022-11-17T07:16:56.317Z,14.82
2022-11-17T07:17:29.728Z,15.45
2022-11-17T07:18:01.791Z,14.57
2022-11-17T07:18:34.699Z,14.90
2022-11-17T07:19:08.389Z,14.02
2022-11-17T07:19:40.325Z,13.70
2022-11-17T07:20:12.506Z,15.60
2022-11-17T07:20:44.763Z,14.07
2022-11-17T07:21:16.789Z,15.30
2022-11-17T07:21:48.849Z,15.13
2022-11-17T07:22:21.102Z,14.95
2022-11-17T07:22:58.432Z,15.30
2022-11-17T07:23:34.461Z,14.23
2022-11-17T07:24:06.698Z,14.95
2022-11-17T07:24:38.614Z,24.37
2022-11-17T07:25:11.853Z,38.20
2022-11-17T07:25:43.805Z,30.60
2022-11-17T07:26:15.732Z,23.35
2022-11-17T07:26:47.702Z,22.35
2022-11-17T07:27:19.617Z,22.15
2022-11-17T07:27:58.939Z,17.05
2022-11-17T07:28:31.340Z,15.32
2022-11-17T07:29:03.574Z,18.92
2022-11-17T07:29:35.550Z,20.30
2022-11-17T07:30:08.198Z,18.95
2022-11-17T07:30:40.858Z,16.10
2022-11-17T07:31:12.807Z,15.85
2022-11-17T07:31:44.705Z,14.40
2022-11-17T07:32:16.689Z,13.27
2022-11-17T07:32:54.407Z,13.93
2022-11-17T07:33:27.376Z,13.70
2022-11-17T07:33:59.617Z,14.43
2022-11-17T07:34:31.624Z,16.12
2022-11-17T07:35:05.924Z,16.70
2022-11-17T07:35:37.802Z,14.40
2022-11-17T07:36:14.733Z,15.68
2022-11-17T07:36:46.642Z,13.60
2022-11-17T07:37:18.711Z,15.07
2022-11-17T07:37:50.626Z,13.57
2022-11-17T07:38:23.491Z,13.18
2022-11-17T07:38:55.676Z,14.05
2022-11-17T07:39:27.552Z,13.75
2022-11-17T07:40:00.845Z,14.73
2022-11-17T07:40:32.839Z,13.20
2022-11-17T07:41:06.052Z,13.35
2022-11-17T07:41:38.090Z,13.43
2022-11-17T07:42:10.012Z,15.35
2022-11-17T07:42:42.001Z,14.73
2022-11-17T07:43:13.975Z,13.80
2022-11-17T07:43:45.843Z,13.45
2022-11-17T07:44:18.066Z,14.55
2022-11-17T07:44:49.946Z,13.82
2022-11-17T07:45:25.081Z,16.33